Terminal Aerodrome Forecast
Issued by NWS Goodland, KS

Home | Current Version | Previous Version | Text Only | Print | Product List | Glossary On
Versions: 1 2 3 4 5 6 7 8 9 10 11 12 13 14 15 16 17 18
170
FTUS43 KGLD 230522
TAFGLD
TAF
KGLD 230522Z 2306/2406 15015G25KT P6SM BKN250 WS012/17070KT
      TEMPO 2310/2314 5SM BR BKN005
     FM231400 19020G30KT P6SM SCT250
     FM240300 17011KT P6SM VCTS SCT050CB BKN250=

USA.gov is the U.S. government's official web portal to all federal, state and local government web resources and services.